sensor_id;sensor_type;location;lat;lon;timestamp;temperature;humidity
66343;DHT22;53144;51.524;5.080;2022-07-18T00:01:30;15.33;82.36
66343;DHT22;53144;51.524;5.080;2022-07-18T00:03:56;15.32;82.70
66343;DHT22;53144;51.524;5.080;2022-07-18T00:06:22;15.27;82.73
66343;DHT22;53144;51.524;5.080;2022-07-18T00:08:47;15.30;82.32
66343;DHT22;53144;51.524;5.080;2022-07-18T00:11:12;15.29;82.13
66343;DHT22;53144;51.524;5.080;2022-07-18T00:13:38;15.30;81.72
66343;DHT22;53144;51.524;5.080;2022-07-18T00:16:03;15.30;82.04
66343;DHT22;53144;51.524;5.080;2022-07-18T00:18:29;15.29;82.89
66343;DHT22;53144;51.524;5.080;2022-07-18T00:20:54;15.25;82.81
66343;DHT22;53144;51.524;5.080;2022-07-18T00:23:20;15.20;83.14
66343;DHT22;53144;51.524;5.080;2022-07-18T00:25:45;15.18;83.23
66343;DHT22;53144;51.524;5.080;2022-07-18T00:28:11;15.16;83.66
66343;DHT22;53144;51.524;5.080;2022-07-18T00:30:38;15.10;83.48
66343;DHT22;53144;51.524;5.080;2022-07-18T00:33:03;15.05;83.71
66343;DHT22;53144;51.524;5.080;2022-07-18T00:35:28;15.00;83.24
66343;DHT22;53144;51.524;5.080;2022-07-18T00:37:54;14.95;83.13
66343;DHT22;53144;51.524;5.080;2022-07-18T00:40:19;14.93;83.31
66343;DHT22;53144;51.524;5.080;2022-07-18T00:42:45;14.88;83.48
66343;DHT22;53144;51.524;5.080;2022-07-18T00:45:10;14.87;83.10
66343;DHT22;53144;51.524;5.080;2022-07-18T00:47:36;14.81;83.62
66343;DHT22;53144;51.524;5.080;2022-07-18T00:50:01;14.77;83.24
66343;DHT22;53144;51.524;5.080;2022-07-18T00:52:28;14.72;82.83
66343;DHT22;53144;51.524;5.080;2022-07-18T00:54:54;14.74;83.45
66343;DHT22;53144;51.524;5.080;2022-07-18T00:57:19;14.71;83.92
66343;DHT22;53144;51.524;5.080;2022-07-18T00:59:45;14.63;84.40
66343;DHT22;53144;51.524;5.080;2022-07-18T01:02:29;14.56;84.48
66343;DHT22;53144;51.524;5.080;2022-07-18T01:04:54;14.52;85.27
66343;DHT22;53144;51.524;5.080;2022-07-18T01:07:20;14.54;84.05
66343;DHT22;53144;51.524;5.080;2022-07-18T01:09:45;14.57;83.89
66343;DHT22;53144;51.524;5.080;2022-07-18T01:12:11;14.58;83.29
66343;DHT22;53144;51.524;5.080;2022-07-18T01:14:37;14.54;84.06
66343;DHT22;53144;51.524;5.080;2022-07-18T01:17:02;14.50;84.31
66343;DHT22;53144;51.524;5.080;2022-07-18T01:19:27;14.41;84.37
66343;DHT22;53144;51.524;5.080;2022-07-18T01:21:53;14.37;84.85
66343;DHT22;53144;51.524;5.080;2022-07-18T01:24:19;14.30;84.55
66343;DHT22;53144;51.524;5.080;2022-07-18T01:26:45;14.31;84.76
66343;DHT22;53144;51.524;5.080;2022-07-18T01:29:10;14.29;85.17
66343;DHT22;53144;51.524;5.080;2022-07-18T01:31:35;14.29;85.49
66343;DHT22;53144;51.524;5.080;2022-07-18T01:34:01;14.23;85.63
66343;DHT22;53144;51.524;5.080;2022-07-18T01:36:27;14.14;85.84
66343;DHT22;53144;51.524;5.080;2022-07-18T01:38:52;14.16;85.82
66343;DHT22;53144;51.524;5.080;2022-07-18T01:41:17;14.17;85.35
66343;DHT22;53144;51.524;5.080;2022-07-18T01:43:43;14.19;86.06
66343;DHT22;53144;51.524;5.080;2022-07-18T01:46:10;14.16;86.28
66343;DHT22;53144;51.524;5.080;2022-07-18T01:48:37;14.19;85.41
66343;DHT22;53144;51.524;5.080;2022-07-18T01:51:03;14.24;85.99
66343;DHT22;53144;51.524;5.080;2022-07-18T01:53:28;14.33;85.39
66343;DHT22;53144;51.524;5.080;2022-07-18T01:55:54;14.41;84.89
66343;DHT22;53144;51.524;5.080;2022-07-18T01:58:19;14.50;84.04
66343;DHT22;53144;51.524;5.080;2022-07-18T02:00:44;14.37;84.15
66343;DHT22;53144;51.524;5.080;2022-07-18T02:03:10;14.14;84.74
66343;DHT22;53144;51.524;5.080;2022-07-18T02:05:35;14.02;85.09
66343;DHT22;53144;51.524;5.080;2022-07-18T02:08:00;13.80;85.25
66343;DHT22;53144;51.524;5.080;2022-07-18T02:10:26;13.78;85.92
66343;DHT22;53144;51.524;5.080;2022-07-18T02:12:51;13.72;86.41
66343;DHT22;53144;51.524;5.080;2022-07-18T02:15:17;13.63;86.50
66343;DHT22;53144;51.524;5.080;2022-07-18T02:17:42;13.69;86.94
66343;DHT22;53144;51.524;5.080;2022-07-18T02:20:11;13.72;87.14
66343;DHT22;53144;51.524;5.080;2022-07-18T02:22:37;13.72;87.03
66343;DHT22;53144;51.524;5.080;2022-07-18T02:25:03;13.72;87.02
66343;DHT22;53144;51.524;5.080;2022-07-18T02:27:28;13.73;87.45
66343;DHT22;53144;51.524;5.080;2022-07-18T02:29:54;13.71;87.09
66343;DHT22;53144;51.524;5.080;2022-07-18T02:32:19;13.71;86.97
66343;DHT22;53144;51.524;5.080;2022-07-18T02:34:45;13.72;87.57
66343;DHT22;53144;51.524;5.080;2022-07-18T02:37:12;13.72;87.18
66343;DHT22;53144;51.524;5.080;2022-07-18T02:39:37;13.73;87.32
66343;DHT22;53144;51.524;5.080;2022-07-18T02:42:03;13.71;87.33
66343;DHT22;53144;51.524;5.080;2022-07-18T02:44:29;13.68;87.52
66343;DHT22;53144;51.524;5.080;2022-07-18T02:46:54;13.66;87.81
66343;DHT22;53144;51.524;5.080;2022-07-18T02:49:19;13.65;87.71
66343;DHT22;53144;51.524;5.080;2022-07-18T02:51:58;13.63;87.88
66343;DHT22;53144;51.524;5.080;2022-07-18T02:54:25;13.58;87.95
66343;DHT22;53144;51.524;5.080;2022-07-18T02:56:51;13.58;88.07
66343;DHT22;53144;51.524;5.080;2022-07-18T02:59:16;13.52;87.20
66343;DHT22;53144;51.524;5.080;2022-07-18T03:01:42;13.37;87.81
66343;DHT22;53144;51.524;5.080;2022-07-18T03:04:07;13.31;87.39
66343;DHT22;53144;51.524;5.080;2022-07-18T03:06:32;13.25;87.83
66343;DHT22;53144;51.524;5.080;2022-07-18T03:08:58;13.22;87.99
66343;DHT22;53144;51.524;5.080;2022-07-18T03:11:23;13.22;88.00
66343;DHT22;53144;51.524;5.080;2022-07-18T03:13:48;13.18;88.29
66343;DHT22;53144;51.524;5.080;2022-07-18T03:16:14;13.11;88.69
66343;DHT22;53144;51.524;5.080;2022-07-18T03:18:39;13.07;88.92
66343;DHT22;53144;51.524;5.080;2022-07-18T03:21:04;13.06;88.65
66343;DHT22;53144;51.524;5.080;2022-07-18T03:23:30;13.07;88.76
66343;DHT22;53144;51.524;5.080;2022-07-18T03:25:55;13.07;89.10
66343;DHT22;53144;51.524;5.080;2022-07-18T03:28:20;13.01;89.38
66343;DHT22;53144;51.524;5.080;2022-07-18T03:30:45;13.04;89.33
66343;DHT22;53144;51.524;5.080;2022-07-18T03:33:11;13.06;89.12
66343;DHT22;53144;51.524;5.080;2022-07-18T03:35:36;13.00;89.39
66343;DHT22;53144;51.524;5.080;2022-07-18T03:38:02;12.99;89.52
66343;DHT22;53144;51.524;5.080;2022-07-18T03:40:27;12.99;89.62
66343;DHT22;53144;51.524;5.080;2022-07-18T03:42:53;13.04;89.79
66343;DHT22;53144;51.524;5.080;2022-07-18T03:45:18;12.99;89.68
66343;DHT22;53144;51.524;5.080;2022-07-18T03:47:43;13.04;90.06
66343;DHT22;53144;51.524;5.080;2022-07-18T03:50:09;13.01;90.08
66343;DHT22;53144;51.524;5.080;2022-07-18T03:52:35;13.06;90.20
66343;DHT22;53144;51.524;5.080;2022-07-18T03:55:00;13.07;90.83
66343;DHT22;53144;51.524;5.080;2022-07-18T03:57:27;13.12;90.14
66343;DHT22;53144;51.524;5.080;2022-07-18T03:59:52;13.20;90.23
66343;DHT22;53144;51.524;5.080;2022-07-18T04:02:18;13.27;90.14
66343;DHT22;53144;51.524;5.080;2022-07-18T04:04:43;13.27;90.06
66343;DHT22;53144;51.524;5.080;2022-07-18T04:07:08;13.32;89.32
66343;DHT22;53144;51.524;5.080;2022-07-18T04:09:34;13.34;89.83
66343;DHT22;53144;51.524;5.080;2022-07-18T04:11:59;13.34;89.23
66343;DHT22;53144;51.524;5.080;2022-07-18T04:14:24;13.34;89.07
66343;DHT22;53144;51.524;5.080;2022-07-18T04:16:50;13.34;88.98
66343;DHT22;53144;51.524;5.080;2022-07-18T04:19:15;13.41;87.79
66343;DHT22;53144;51.524;5.080;2022-07-18T04:21:42;13.25;88.16
66343;DHT22;53144;51.524;5.080;2022-07-18T04:24:07;13.24;88.03
66343;DHT22;53144;51.524;5.080;2022-07-18T04:26:33;13.15;88.51
66343;DHT22;53144;51.524;5.080;2022-07-18T04:28:58;13.08;89.25
66343;DHT22;53144;51.524;5.080;2022-07-18T04:31:23;13.07;89.37
66343;DHT22;53144;51.524;5.080;2022-07-18T04:33:49;13.10;89.70
66343;DHT22;53144;51.524;5.080;2022-07-18T04:36:14;13.17;89.46
66343;DHT22;53144;51.524;5.080;2022-07-18T04:38:39;13.24;89.76
66343;DHT22;53144;51.524;5.080;2022-07-18T04:41:05;13.32;89.10
66343;DHT22;53144;51.524;5.080;2022-07-18T04:43:30;13.35;89.36
66343;DHT22;53144;51.524;5.080;2022-07-18T04:45:56;13.44;89.87
66343;DHT22;53144;51.524;5.080;2022-07-18T04:48:21;13.48;89.54
66343;DHT22;53144;51.524;5.080;2022-07-18T04:50:46;13.51;89.04
66343;DHT22;53144;51.524;5.080;2022-07-18T04:53:11;13.62;89.34
66343;DHT22;53144;51.524;5.080;2022-07-18T04:55:37;13.69;88.75
66343;DHT22;53144;51.524;5.080;2022-07-18T04:58:02;13.76;88.83
66343;DHT22;53144;51.524;5.080;2022-07-18T05:00:27;13.83;88.76
66343;DHT22;53144;51.524;5.080;2022-07-18T05:02:53;13.95;87.82
66343;DHT22;53144;51.524;5.080;2022-07-18T05:05:20;14.08;88.74
66343;DHT22;53144;51.524;5.080;2022-07-18T05:07:46;14.16;88.59
66343;DHT22;53144;51.524;5.080;2022-07-18T05:10:12;14.24;86.83
66343;DHT22;53144;51.524;5.080;2022-07-18T05:12:39;14.37;86.00
66343;DHT22;53144;51.524;5.080;2022-07-18T05:15:05;14.48;85.88
66343;DHT22;53144;51.524;5.080;2022-07-18T05:17:30;14.69;86.01
66343;DHT22;53144;51.524;5.080;2022-07-18T05:19:55;14.84;85.25
66343;DHT22;53144;51.524;5.080;2022-07-18T05:22:20;14.93;85.19
66343;DHT22;53144;51.524;5.080;2022-07-18T05:24:46;15.00;84.61
66343;DHT22;53144;51.524;5.080;2022-07-18T05:27:11;15.12;82.45
66343;DHT22;53144;51.524;5.080;2022-07-18T05:29:36;15.25;81.15
66343;DHT22;53144;51.524;5.080;2022-07-18T05:32:02;15.35;79.53
66343;DHT22;53144;51.524;5.080;2022-07-18T05:34:27;15.44;79.22
66343;DHT22;53144;51.524;5.080;2022-07-18T05:36:52;15.49;78.42
66343;DHT22;53144;51.524;5.080;2022-07-18T05:39:18;15.57;78.60
66343;DHT22;53144;51.524;5.080;2022-07-18T05:41:43;15.61;78.69
66343;DHT22;53144;51.524;5.080;2022-07-18T05:44:08;15.75;77.51
66343;DHT22;53144;51.524;5.080;2022-07-18T05:46:33;15.85;77.24
66343;DHT22;53144;51.524;5.080;2022-07-18T05:48:59;15.95;76.64
66343;DHT22;53144;51.524;5.080;2022-07-18T05:51:24;16.05;76.51
66343;DHT22;53144;51.524;5.080;2022-07-18T05:53:49;16.19;75.96
66343;DHT22;53144;51.524;5.080;2022-07-18T05:56:15;16.35;75.89
66343;DHT22;53144;51.524;5.080;2022-07-18T05:58:40;16.36;76.56
66343;DHT22;53144;51.524;5.080;2022-07-18T06:01:06;16.51;76.29
66343;DHT22;53144;51.524;5.080;2022-07-18T06:03:31;16.64;76.54
66343;DHT22;53144;51.524;5.080;2022-07-18T06:05:56;16.73;77.13
66343;DHT22;53144;51.524;5.080;2022-07-18T06:08:22;16.81;77.53
66343;DHT22;53144;51.524;5.080;2022-07-18T06:10:47;16.87;76.80
66343;DHT22;53144;51.524;5.080;2022-07-18T06:13:12;17.08;73.71
66343;DHT22;53144;51.524;5.080;2022-07-18T06:15:37;17.27;73.15
66343;DHT22;53144;51.524;5.080;2022-07-18T06:18:03;17.44;73.44
66343;DHT22;53144;51.524;5.080;2022-07-18T06:20:28;17.62;71.88
66343;DHT22;53144;51.524;5.080;2022-07-18T06:22:53;17.73;72.13
66343;DHT22;53144;51.524;5.080;2022-07-18T06:25:19;17.87;72.34
66343;DHT22;53144;51.524;5.080;2022-07-18T06:27:44;18.02;73.11
66343;DHT22;53144;51.524;5.080;2022-07-18T06:30:09;18.16;71.49
66343;DHT22;53144;51.524;5.080;2022-07-18T06:32:35;18.29;71.06
66343;DHT22;53144;51.524;5.080;2022-07-18T06:35:00;18.45;70.39
66343;DHT22;53144;51.524;5.080;2022-07-18T06:37:26;18.55;69.89
66343;DHT22;53144;51.524;5.080;2022-07-18T06:39:51;18.64;69.47
66343;DHT22;53144;51.524;5.080;2022-07-18T06:42:16;18.75;70.10
66343;DHT22;53144;51.524;5.080;2022-07-18T06:44:42;18.75;70.49
66343;DHT22;53144;51.524;5.080;2022-07-18T06:47:07;18.87;69.73
66343;DHT22;53144;51.524;5.080;2022-07-18T06:49:32;18.87;70.55
66343;DHT22;53144;51.524;5.080;2022-07-18T06:51:57;19.06;69.28
66343;DHT22;53144;51.524;5.080;2022-07-18T06:54:23;19.20;69.70
66343;DHT22;53144;51.524;5.080;2022-07-18T06:56:53;19.33;69.94
66343;DHT22;53144;51.524;5.080;2022-07-18T06:59:18;19.43;69.30
66343;DHT22;53144;51.524;5.080;2022-07-18T07:01:43;19.53;69.45
66343;DHT22;53144;51.524;5.080;2022-07-18T07:04:08;19.66;68.40
66343;DHT22;53144;51.524;5.080;2022-07-18T07:06:34;19.84;68.29
66343;DHT22;53144;51.524;5.080;2022-07-18T07:09:01;19.92;68.35
66343;DHT22;53144;51.524;5.080;2022-07-18T07:11:27;20.08;68.51
66343;DHT22;53144;51.524;5.080;2022-07-18T07:13:52;20.07;69.88
66343;DHT22;53144;51.524;5.080;2022-07-18T07:16:17;20.22;70.36
66343;DHT22;53144;51.524;5.080;2022-07-18T07:18:42;20.32;69.12
66343;DHT22;53144;51.524;5.080;2022-07-18T07:21:08;20.43;69.91
66343;DHT22;53144;51.524;5.080;2022-07-18T07:23:34;20.57;68.41
66343;DHT22;53144;51.524;5.080;2022-07-18T07:25:59;20.65;68.92
66343;DHT22;53144;51.524;5.080;2022-07-18T07:28:25;20.80;66.94
66343;DHT22;53144;51.524;5.080;2022-07-18T07:30:50;20.94;66.85
66343;DHT22;53144;51.524;5.080;2022-07-18T07:33:15;21.23;62.23
66343;DHT22;53144;51.524;5.080;2022-07-18T07:35:41;21.52;62.68
66343;DHT22;53144;51.524;5.080;2022-07-18T07:38:06;21.71;61.38
66343;DHT22;53144;51.524;5.080;2022-07-18T07:40:32;21.96;58.49
66343;DHT22;53144;51.524;5.080;2022-07-18T07:43:10;22.09;57.96
66343;DHT22;53144;51.524;5.080;2022-07-18T07:45:36;22.21;58.28
66343;DHT22;53144;51.524;5.080;2022-07-18T07:48:02;22.29;58.67
66343;DHT22;53144;51.524;5.080;2022-07-18T07:50:27;22.61;56.33
66343;DHT22;53144;51.524;5.080;2022-07-18T07:52:52;22.84;54.24
66343;DHT22;53144;51.524;5.080;2022-07-18T07:55:18;22.96;51.25
66343;DHT22;53144;51.524;5.080;2022-07-18T07:57:43;23.02;51.91
66343;DHT22;53144;51.524;5.080;2022-07-18T08:00:09;23.16;51.06
66343;DHT22;53144;51.524;5.080;2022-07-18T08:02:34;23.46;49.44
66343;DHT22;53144;51.524;5.080;2022-07-18T08:05:00;23.66;49.19
66343;DHT22;53144;51.524;5.080;2022-07-18T08:07:25;23.60;49.81
66343;DHT22;53144;51.524;5.080;2022-07-18T08:09:51;23.78;48.05
66343;DHT22;53144;51.524;5.080;2022-07-18T08:12:16;23.88;49.20
66343;DHT22;53144;51.524;5.080;2022-07-18T08:14:41;23.94;50.72
66343;DHT22;53144;51.524;5.080;2022-07-18T08:17:07;24.05;48.46
66343;DHT22;53144;51.524;5.080;2022-07-18T08:19:32;24.07;50.29
66343;DHT22;53144;51.524;5.080;2022-07-18T08:21:58;24.24;47.53
66343;DHT22;53144;51.524;5.080;2022-07-18T08:24:23;24.29;47.76
66343;DHT22;53144;51.524;5.080;2022-07-18T08:26:48;24.40;51.60
66343;DHT22;53144;51.524;5.080;2022-07-18T08:29:13;24.60;47.68
66343;DHT22;53144;51.524;5.080;2022-07-18T08:31:39;24.63;48.13
66343;DHT22;53144;51.524;5.080;2022-07-18T08:34:04;24.51;48.72
66343;DHT22;53144;51.524;5.080;2022-07-18T08:36:30;24.63;49.22
66343;DHT22;53144;51.524;5.080;2022-07-18T08:38:55;24.76;47.06
66343;DHT22;53144;51.524;5.080;2022-07-18T08:41:23;24.77;46.85
66343;DHT22;53144;51.524;5.080;2022-07-18T08:43:49;24.88;47.29
66343;DHT22;53144;51.524;5.080;2022-07-18T08:46:14;24.90;49.44
66343;DHT22;53144;51.524;5.080;2022-07-18T08:48:41;25.03;47.26
66343;DHT22;53144;51.524;5.080;2022-07-18T08:51:06;25.04;49.73
66343;DHT22;53144;51.524;5.080;2022-07-18T08:53:32;25.15;47.65
66343;DHT22;53144;51.524;5.080;2022-07-18T08:55:59;25.27;47.73
66343;DHT22;53144;51.524;5.080;2022-07-18T08:58:24;25.35;48.91
66343;DHT22;53144;51.524;5.080;2022-07-18T09:00:49;25.51;48.11
66343;DHT22;53144;51.524;5.080;2022-07-18T09:03:15;25.65;46.56
66343;DHT22;53144;51.524;5.080;2022-07-18T09:05:40;25.79;46.12
66343;DHT22;53144;51.524;5.080;2022-07-18T09:08:11;26.00;42.93
66343;DHT22;53144;51.524;5.080;2022-07-18T09:13:15;26.24;43.79
66343;DHT22;53144;51.524;5.080;2022-07-18T09:15:56;26.40;43.68
66343;DHT22;53144;51.524;5.080;2022-07-18T09:18:31;26.40;43.70
66343;DHT22;53144;51.524;5.080;2022-07-18T09:21:01;26.45;44.08
66343;DHT22;53144;51.524;5.080;2022-07-18T09:23:30;26.52;45.47
66343;DHT22;53144;51.524;5.080;2022-07-18T09:25:56;26.61;44.39
66343;DHT22;53144;51.524;5.080;2022-07-18T09:28:21;26.81;43.08
66343;DHT22;53144;51.524;5.080;2022-07-18T09:30:47;26.94;44.08
66343;DHT22;53144;51.524;5.080;2022-07-18T09:33:12;27.13;42.95
66343;DHT22;53144;51.524;5.080;2022-07-18T09:35:48;27.20;43.30
66343;DHT22;53144;51.524;5.080;2022-07-18T09:38:22;27.23;42.17
66343;DHT22;53144;51.524;5.080;2022-07-18T09:40:53;27.29;41.93
66343;DHT22;53144;51.524;5.080;2022-07-18T09:43:28;27.35;43.44
66343;DHT22;53144;51.524;5.080;2022-07-18T09:46:03;27.40;46.29
66343;DHT22;53144;51.524;5.080;2022-07-18T09:48:28;27.51;44.22
66343;DHT22;53144;51.524;5.080;2022-07-18T09:50:55;27.46;45.62
66343;DHT22;53144;51.524;5.080;2022-07-18T09:53:24;27.51;44.47
66343;DHT22;53144;51.524;5.080;2022-07-18T09:55:55;27.57;44.03
66343;DHT22;53144;51.524;5.080;2022-07-18T09:58:22;27.68;44.89
66343;DHT22;53144;51.524;5.080;2022-07-18T10:00:47;27.74;44.73
66343;DHT22;53144;51.524;5.080;2022-07-18T10:03:13;27.77;46.47
66343;DHT22;53144;51.524;5.080;2022-07-18T10:05:39;27.94;43.00
66343;DHT22;53144;51.524;5.080;2022-07-18T10:08:09;28.09;41.02
66343;DHT22;53144;51.524;5.080;2022-07-18T10:10:34;28.29;43.73
66343;DHT22;53144;51.524;5.080;2022-07-18T10:13:01;28.56;42.04
66343;DHT22;53144;51.524;5.080;2022-07-18T10:15:28;28.67;40.27
66343;DHT22;53144;51.524;5.080;2022-07-18T10:17:53;28.51;42.54
66343;DHT22;53144;51.524;5.080;2022-07-18T10:20:24;28.75;39.88
66343;DHT22;53144;51.524;5.080;2022-07-18T10:22:51;28.96;39.28
66343;DHT22;53144;51.524;5.080;2022-07-18T10:25:18;29.07;37.42
66343;DHT22;53144;51.524;5.080;2022-07-18T10:27:47;29.28;37.11
66343;DHT22;53144;51.524;5.080;2022-07-18T10:30:15;29.71;37.00
66343;DHT22;53144;51.524;5.080;2022-07-18T10:32:40;29.93;35.27
66343;DHT22;53144;51.524;5.080;2022-07-18T10:35:06;30.33;36.35
66343;DHT22;53144;51.524;5.080;2022-07-18T10:37:32;30.51;35.44
66343;DHT22;53144;51.524;5.080;2022-07-18T10:42:45;30.89;35.49
66343;DHT22;53144;51.524;5.080;2022-07-18T10:45:26;30.81;34.90
66343;DHT22;53144;51.524;5.080;2022-07-18T10:51:08;31.39;34.26
66343;DHT22;53144;51.524;5.080;2022-07-18T10:56:17;32.01;34.43
66343;DHT22;53144;51.524;5.080;2022-07-18T10:58:43;32.49;34.01
66343;DHT22;53144;51.524;5.080;2022-07-18T11:01:10;32.42;33.63
66343;DHT22;53144;51.524;5.080;2022-07-18T11:03:38;32.56;32.92
66343;DHT22;53144;51.524;5.080;2022-07-18T11:06:03;32.98;31.94
66343;DHT22;53144;51.524;5.080;2022-07-18T11:08:31;32.85;35.60
66343;DHT22;53144;51.524;5.080;2022-07-18T11:16:02;34.04;31.81
66343;DHT22;53144;51.524;5.080;2022-07-18T11:19:17;33.99;31.00
66343;DHT22;53144;51.524;5.080;2022-07-18T11:23:46;34.08;29.78
66343;DHT22;53144;51.524;5.080;2022-07-18T11:26:15;34.22;29.95
66343;DHT22;53144;51.524;5.080;2022-07-18T11:28:41;34.28;30.84
66343;DHT22;53144;51.524;5.080;2022-07-18T11:31:07;34.40;30.61
66343;DHT22;53144;51.524;5.080;2022-07-18T11:33:43;35.01;32.27
66343;DHT22;53144;51.524;5.080;2022-07-18T11:36:13;34.04;29.96
66343;DHT22;53144;51.524;5.080;2022-07-18T11:38:49;34.40;30.21
66343;DHT22;53144;51.524;5.080;2022-07-18T11:41:14;35.00;29.91
66343;DHT22;53144;51.524;5.080;2022-07-18T11:43:40;35.44;29.47
66343;DHT22;53144;51.524;5.080;2022-07-18T11:48:31;35.18;28.02
66343;DHT22;53144;51.524;5.080;2022-07-18T11:50:57;35.41;28.17
66343;DHT22;53144;51.524;5.080;2022-07-18T11:53:22;35.56;28.39
66343;DHT22;53144;51.524;5.080;2022-07-18T11:55:48;36.06;29.16
66343;DHT22;53144;51.524;5.080;2022-07-18T11:58:14;35.69;28.05
66343;DHT22;53144;51.524;5.080;2022-07-18T12:00:40;35.55;29.40
66343;DHT22;53144;51.524;5.080;2022-07-18T12:05:40;35.76;28.87
66343;DHT22;53144;51.524;5.080;2022-07-18T12:08:25;35.27;28.62
66343;DHT22;53144;51.524;5.080;2022-07-18T12:13:38;35.66;28.66
66343;DHT22;53144;51.524;5.080;2022-07-18T12:16:04;36.17;28.30
66343;DHT22;53144;51.524;5.080;2022-07-18T12:18:29;36.57;26.79
66343;DHT22;53144;51.524;5.080;2022-07-18T12:21:10;36.91;28.12
66343;DHT22;53144;51.524;5.080;2022-07-18T12:23:35;36.39;25.85
66343;DHT22;53144;51.524;5.080;2022-07-18T12:26:00;36.16;26.28
66343;DHT22;53144;51.524;5.080;2022-07-18T12:28:26;36.40;25.27
66343;DHT22;53144;51.524;5.080;2022-07-18T12:30:52;36.54;25.76
66343;DHT22;53144;51.524;5.080;2022-07-18T12:33:18;36.43;25.38
66343;DHT22;53144;51.524;5.080;2022-07-18T12:35:43;36.30;26.57
66343;DHT22;53144;51.524;5.080;2022-07-18T12:38:10;36.36;26.93
66343;DHT22;53144;51.524;5.080;2022-07-18T12:43:13;35.93;27.01
66343;DHT22;53144;51.524;5.080;2022-07-18T12:45:39;36.36;25.80
66343;DHT22;53144;51.524;5.080;2022-07-18T12:48:06;36.50;26.10
66343;DHT22;53144;51.524;5.080;2022-07-18T12:50:31;36.78;26.20
66343;DHT22;53144;51.524;5.080;2022-07-18T12:52:57;36.52;27.02
66343;DHT22;53144;51.524;5.080;2022-07-18T12:55:22;36.60;25.92
66343;DHT22;53144;51.524;5.080;2022-07-18T12:57:48;35.75;28.70
66343;DHT22;53144;51.524;5.080;2022-07-18T13:00:13;36.99;27.04
66343;DHT22;53144;51.524;5.080;2022-07-18T13:02:39;36.92;26.42
66343;DHT22;53144;51.524;5.080;2022-07-18T13:05:05;37.03;24.69
66343;DHT22;53144;51.524;5.080;2022-07-18T13:07:30;37.08;27.03
66343;DHT22;53144;51.524;5.080;2022-07-18T13:09:55;36.72;27.95
66343;DHT22;53144;51.524;5.080;2022-07-18T13:12:21;34.66;28.10
66343;DHT22;53144;51.524;5.080;2022-07-18T13:14:46;36.34;27.89
66343;DHT22;53144;51.524;5.080;2022-07-18T13:17:12;36.23;26.86
66343;DHT22;53144;51.524;5.080;2022-07-18T13:19:37;36.85;23.61
66343;DHT22;53144;51.524;5.080;2022-07-18T13:22:02;35.49;24.56
66343;DHT22;53144;51.524;5.080;2022-07-18T13:24:28;35.62;26.26
66343;DHT22;53144;51.524;5.080;2022-07-18T13:26:53;36.13;24.76
66343;DHT22;53144;51.524;5.080;2022-07-18T13:29:18;36.47;28.78
66343;DHT22;53144;51.524;5.080;2022-07-18T13:31:44;36.51;27.06
66343;DHT22;53144;51.524;5.080;2022-07-18T13:34:09;37.45;26.85
66343;DHT22;53144;51.524;5.080;2022-07-18T13:36:34;37.47;26.73
66343;DHT22;53144;51.524;5.080;2022-07-18T13:39:00;37.83;26.30
66343;DHT22;53144;51.524;5.080;2022-07-18T13:41:28;36.41;26.90
66343;DHT22;53144;51.524;5.080;2022-07-18T13:43:54;36.70;28.43
66343;DHT22;53144;51.524;5.080;2022-07-18T13:46:19;37.14;25.46
66343;DHT22;53144;51.524;5.080;2022-07-18T13:48:44;37.30;27.15
66343;DHT22;53144;51.524;5.080;2022-07-18T13:51:11;36.39;28.64
66343;DHT22;53144;51.524;5.080;2022-07-18T13:53:37;36.99;26.60
66343;DHT22;53144;51.524;5.080;2022-07-18T13:56:02;37.69;25.98
66343;DHT22;53144;51.524;5.080;2022-07-18T13:58:27;37.70;24.22
66343;DHT22;53144;51.524;5.080;2022-07-18T14:00:53;37.47;23.32
66343;DHT22;53144;51.524;5.080;2022-07-18T14:03:18;37.39;24.62
66343;DHT22;53144;51.524;5.080;2022-07-18T14:05:43;37.14;23.95
66343;DHT22;53144;51.524;5.080;2022-07-18T14:08:09;36.27;25.79
66343;DHT22;53144;51.524;5.080;2022-07-18T14:10:34;36.13;25.55
66343;DHT22;53144;51.524;5.080;2022-07-18T14:13:00;35.81;24.71
66343;DHT22;53144;51.524;5.080;2022-07-18T14:15:26;35.65;25.49
66343;DHT22;53144;51.524;5.080;2022-07-18T14:17:52;35.65;25.61
66343;DHT22;53144;51.524;5.080;2022-07-18T14:20:17;35.04;27.37
66343;DHT22;53144;51.524;5.080;2022-07-18T14:22:43;34.87;27.15
66343;DHT22;53144;51.524;5.080;2022-07-18T14:25:12;34.91;26.97
66343;DHT22;53144;51.524;5.080;2022-07-18T14:27:37;34.22;27.59
66343;DHT22;53144;51.524;5.080;2022-07-18T14:30:03;34.02;27.79
66343;DHT22;53144;51.524;5.080;2022-07-18T14:32:29;33.07;28.98
66343;DHT22;53144;51.524;5.080;2022-07-18T14:34:54;32.69;28.84
66343;DHT22;53144;51.524;5.080;2022-07-18T14:37:20;32.78;28.44
66343;DHT22;53144;51.524;5.080;2022-07-18T14:39:45;32.92;30.00
66343;DHT22;53144;51.524;5.080;2022-07-18T14:42:10;32.87;28.80
66343;DHT22;53144;51.524;5.080;2022-07-18T14:44:37;32.62;31.22
66343;DHT22;53144;51.524;5.080;2022-07-18T14:47:03;32.76;30.26
66343;DHT22;53144;51.524;5.080;2022-07-18T14:49:28;32.79;30.21
66343;DHT22;53144;51.524;5.080;2022-07-18T14:51:53;32.82;30.14
66343;DHT22;53144;51.524;5.080;2022-07-18T14:54:19;32.75;31.28
66343;DHT22;53144;51.524;5.080;2022-07-18T14:56:44;32.64;30.32
66343;DHT22;53144;51.524;5.080;2022-07-18T14:59:09;32.69;30.38
66343;DHT22;53144;51.524;5.080;2022-07-18T15:01:34;32.66;29.89
66343;DHT22;53144;51.524;5.080;2022-07-18T15:04:00;32.73;29.25
66343;DHT22;53144;51.524;5.080;2022-07-18T15:06:25;32.69;28.14
66343;DHT22;53144;51.524;5.080;2022-07-18T15:08:51;32.73;29.57
66343;DHT22;53144;51.524;5.080;2022-07-18T15:11:16;32.71;31.20
66343;DHT22;53144;51.524;5.080;2022-07-18T15:13:44;32.51;29.08
66343;DHT22;53144;51.524;5.080;2022-07-18T15:16:09;32.35;30.51
66343;DHT22;53144;51.524;5.080;2022-07-18T15:18:34;32.31;32.18
66343;DHT22;53144;51.524;5.080;2022-07-18T15:21:00;32.25;31.58
66343;DHT22;53144;51.524;5.080;2022-07-18T15:23:25;32.21;29.77
66343;DHT22;53144;51.524;5.080;2022-07-18T15:25:50;32.25;29.82
66343;DHT22;53144;51.524;5.080;2022-07-18T15:28:16;32.17;30.17
66343;DHT22;53144;51.524;5.080;2022-07-18T15:30:41;32.15;29.56
66343;DHT22;53144;51.524;5.080;2022-07-18T15:33:06;32.04;31.15
66343;DHT22;53144;51.524;5.080;2022-07-18T15:35:31;32.08;32.56
66343;DHT22;53144;51.524;5.080;2022-07-18T15:37:57;31.98;33.82
66343;DHT22;53144;51.524;5.080;2022-07-18T15:40:22;32.07;32.83
66343;DHT22;53144;51.524;5.080;2022-07-18T15:42:48;32.06;32.53
66343;DHT22;53144;51.524;5.080;2022-07-18T15:45:13;32.07;31.44
66343;DHT22;53144;51.524;5.080;2022-07-18T15:47:39;32.08;31.65
66343;DHT22;53144;51.524;5.080;2022-07-18T15:50:04;32.01;33.77
66343;DHT22;53144;51.524;5.080;2022-07-18T15:52:29;32.06;30.73